createdAt,value
2018-08-23T00:00:15.237Z,0.00
2018-08-23T00:01:15.240Z,0.00
2018-08-23T00:02:15.241Z,0.00
2018-08-23T00:03:15.242Z,0.00
2018-08-23T00:04:15.242Z,0.00
2018-08-23T00:05:15.242Z,0.00
2018-08-23T00:06:15.244Z,0.00
2018-08-23T00:07:15.240Z,0.00
2018-08-23T00:08:15.256Z,0.00
2018-08-23T00:09:15.244Z,0.00
2018-08-23T00:10:15.277Z,0.00
2018-08-23T00:11:15.245Z,0.00
2018-08-23T00:12:15.246Z,0.00
2018-08-23T00:13:15.242Z,0.00
2018-08-23T00:14:15.246Z,0.00
2018-08-23T00:15:15.247Z,0.00
2018-08-23T00:16:15.242Z,0.00
2018-08-23T00:17:15.242Z,0.00
2018-08-23T00:18:15.245Z,0.00
2018-08-23T00:19:15.243Z,0.00
2018-08-23T00:20:15.245Z,0.00
2018-08-23T00:21:15.243Z,0.00
2018-08-23T00:22:15.243Z,0.00
2018-08-23T00:23:15.242Z,0.00
2018-08-23T00:24:15.243Z,0.00
2018-08-23T00:25:15.244Z,0.00
2018-08-23T00:26:15.244Z,0.00
2018-08-23T00:27:15.323Z,0.00
2018-08-23T00:28:15.244Z,0.00
2018-08-23T00:29:15.243Z,0.00
2018-08-23T00:30:15.246Z,0.00
2018-08-23T00:31:15.244Z,0.00
2018-08-23T00:32:15.244Z,0.00
2018-08-23T00:33:15.243Z,0.00
2018-08-23T00:34:15.244Z,0.00
2018-08-23T00:35:15.245Z,0.00
2018-08-23T00:36:15.245Z,0.00
2018-08-23T00:37:15.250Z,0.00
2018-08-23T00:38:15.245Z,0.00
2018-08-23T00:39:15.245Z,0.00
2018-08-23T00:40:15.246Z,0.00
2018-08-23T00:41:15.245Z,0.00
2018-08-23T00:42:15.246Z,0.00
2018-08-23T00:43:15.250Z,0.00
2018-08-23T00:44:15.246Z,0.00
2018-08-23T00:45:15.246Z,0.00
2018-08-23T00:46:15.246Z,0.00
2018-08-23T00:47:15.245Z,0.00
2018-08-23T00:48:15.249Z,0.00
2018-08-23T00:49:15.247Z,0.00
2018-08-23T00:50:15.247Z,0.00
2018-08-23T00:51:15.246Z,0.00
2018-08-23T00:52:15.245Z,0.00
2018-08-23T00:53:15.249Z,0.00
2018-08-23T00:54:15.287Z,0.00
2018-08-23T00:55:15.248Z,0.00
2018-08-23T00:56:15.248Z,0.00
2018-08-23T00:57:15.245Z,0.00
2018-08-23T00:58:15.245Z,0.00
2018-08-23T00:59:15.246Z,0.00
2018-08-23T01:00:15.249Z,0.00
2018-08-23T01:01:15.248Z,0.00
2018-08-23T01:02:15.250Z,0.00
2018-08-23T01:03:15.247Z,0.00
2018-08-23T01:04:15.246Z,0.00
2018-08-23T01:05:15.245Z,0.00
2018-08-23T01:06:15.248Z,0.00
2018-08-23T01:07:15.246Z,0.00
2018-08-23T01:08:15.252Z,0.00
2018-08-23T01:09:15.245Z,0.00
2018-08-23T01:10:15.249Z,0.00
2018-08-23T01:11:15.245Z,0.00
2018-08-23T01:12:15.246Z,0.00
2018-08-23T01:13:15.244Z,0.00
2018-08-23T01:14:15.246Z,0.00
2018-08-23T01:15:15.248Z,0.00
2018-08-23T01:16:15.246Z,0.00
2018-08-23T01:17:15.247Z,0.00
2018-08-23T01:18:15.246Z,0.00
2018-08-23T01:19:15.246Z,0.00
2018-08-23T01:20:15.246Z,0.00
2018-08-23T01:21:15.246Z,0.00
2018-08-23T01:22:15.248Z,0.00
2018-08-23T01:23:15.245Z,0.00
2018-08-23T01:24:15.247Z,0.00
2018-08-23T01:25:15.250Z,0.00
2018-08-23T01:26:15.246Z,0.00
2018-08-23T01:27:15.246Z,0.00
2018-08-23T01:28:15.245Z,0.00
2018-08-23T01:29:15.249Z,0.00
2018-08-23T01:30:15.246Z,0.00
2018-08-23T01:31:15.248Z,0.00
2018-08-23T01:32:15.248Z,0.00
2018-08-23T01:33:15.246Z,0.00
2018-08-23T01:34:15.246Z,0.00
2018-08-23T01:35:15.248Z,0.00
2018-08-23T01:36:15.249Z,0.00
2018-08-23T01:37:15.246Z,0.00
2018-08-23T01:38:15.250Z,0.00
2018-08-23T01:39:15.246Z,0.00
2018-08-23T01:40:15.245Z,0.00
2018-08-23T01:41:15.245Z,0.00
2018-08-23T01:42:15.244Z,0.00
2018-08-23T01:43:15.245Z,0.00
2018-08-23T01:44:15.244Z,0.00
2018-08-23T01:45:15.244Z,0.00
2018-08-23T01:46:15.243Z,0.00
2018-08-23T01:47:15.245Z,0.00
2018-08-23T01:48:15.246Z,0.00
2018-08-23T01:49:15.245Z,0.00
2018-08-23T01:50:15.246Z,0.00
2018-08-23T01:51:15.247Z,0.00
2018-08-23T01:52:15.244Z,0.00
2018-08-23T01:53:15.244Z,0.00
2018-08-23T01:54:15.245Z,0.00
2018-08-23T01:55:15.244Z,0.00
2018-08-23T01:56:15.245Z,0.00
2018-08-23T01:57:15.243Z,0.00
2018-08-23T01:58:15.244Z,0.00
2018-08-23T01:59:15.249Z,0.00
2018-08-23T02:00:15.245Z,0.00
2018-08-23T02:01:15.240Z,0.00
2018-08-23T02:02:15.241Z,0.00
2018-08-23T02:03:15.247Z,0.00
2018-08-23T02:04:15.242Z,0.00
2018-08-23T02:05:15.241Z,0.00
2018-08-23T02:06:15.244Z,0.00
2018-08-23T02:07:15.252Z,0.00
2018-08-23T02:08:15.241Z,0.00
2018-08-23T02:09:15.240Z,0.00
2018-08-23T02:10:15.238Z,0.00
2018-08-23T02:11:15.240Z,0.00
2018-08-23T02:12:15.238Z,0.00
2018-08-23T02:13:15.239Z,0.00
2018-08-23T02:14:15.238Z,0.00
2018-08-23T02:15:15.241Z,0.00
2018-08-23T02:16:15.238Z,0.00
2018-08-23T02:17:15.237Z,0.00
2018-08-23T02:18:15.238Z,0.00
2018-08-23T02:19:15.237Z,0.00
2018-08-23T02:20:15.237Z,0.00
2018-08-23T02:21:15.237Z,0.00
2018-08-23T02:22:15.236Z,0.00
2018-08-23T02:23:15.236Z,0.00
2018-08-23T02:24:15.236Z,0.00
2018-08-23T02:25:15.235Z,0.00
2018-08-23T02:26:15.234Z,0.00
2018-08-23T02:27:15.238Z,0.00
2018-08-23T02:28:15.236Z,0.00
2018-08-23T02:29:15.234Z,0.00
2018-08-23T02:30:15.234Z,0.00
2018-08-23T02:31:15.233Z,0.00
2018-08-23T02:32:15.233Z,0.00
2018-08-23T02:33:15.232Z,0.00
2018-08-23T02:34:15.233Z,0.00
2018-08-23T02:35:15.232Z,0.00
2018-08-23T02:36:15.235Z,0.00
2018-08-23T02:37:15.233Z,0.00
2018-08-23T02:38:15.321Z,0.00
2018-08-23T02:39:15.230Z,0.00
2018-08-23T02:40:15.230Z,0.00
2018-08-23T02:41:15.231Z,0.00
2018-08-23T02:42:15.231Z,0.00
2018-08-23T02:43:15.230Z,0.00
2018-08-23T02:44:15.229Z,0.00
2018-08-23T02:45:15.227Z,0.00
2018-08-23T02:46:15.232Z,0.00
2018-08-23T02:47:15.228Z,0.00
2018-08-23T02:48:15.229Z,0.00
2018-08-23T02:49:15.226Z,0.00
2018-08-23T02:50:15.227Z,0.00
2018-08-23T02:51:15.226Z,0.00
2018-08-23T02:52:15.225Z,0.00
2018-08-23T02:53:15.224Z,0.00
2018-08-23T02:54:15.230Z,0.00
2018-08-23T02:55:15.225Z,0.00
2018-08-23T02:56:15.220Z,0.00
2018-08-23T02:57:15.225Z,0.00
2018-08-23T02:58:15.225Z,0.00
2018-08-23T02:59:15.223Z,0.00
2018-08-23T03:00:15.225Z,0.00
2018-08-23T03:01:15.222Z,0.00
2018-08-23T03:02:15.222Z,0.00
2018-08-23T03:03:15.220Z,0.00
2018-08-23T03:04:15.220Z,0.00
2018-08-23T03:05:15.224Z,0.00
2018-08-23T03:06:15.221Z,0.00
2018-08-23T03:07:15.221Z,0.00
2018-08-23T03:08:15.220Z,0.00
2018-08-23T03:09:15.220Z,0.00
2018-08-23T03:10:15.217Z,0.00
2018-08-23T03:11:15.219Z,0.00
2018-08-23T03:12:15.222Z,0.00
2018-08-23T03:13:15.217Z,0.00
2018-08-23T03:14:15.294Z,0.00
2018-08-23T03:15:15.216Z,0.00
2018-08-23T03:16:15.214Z,0.00
2018-08-23T03:17:15.219Z,0.00
2018-08-23T03:18:15.216Z,0.00
2018-08-23T03:19:15.214Z,0.00
2018-08-23T03:20:15.213Z,0.00
2018-08-23T03:21:15.214Z,0.00
2018-08-23T03:22:15.212Z,0.00
2018-08-23T03:23:15.212Z,0.00
2018-08-23T03:24:15.211Z,0.00
2018-08-23T03:25:15.211Z,0.00
2018-08-23T03:26:15.211Z,0.00
2018-08-23T03:27:15.211Z,0.00
2018-08-23T03:28:15.212Z,4.00
2018-08-23T03:29:15.210Z,4.00
2018-08-23T03:30:15.211Z,0.00
2018-08-23T03:31:15.207Z,4.00
2018-08-23T03:32:15.210Z,4.00
2018-08-23T03:33:15.206Z,0.00
2018-08-23T03:34:15.209Z,4.00
2018-08-23T03:35:15.209Z,4.00
2018-08-23T03:36:15.206Z,8.00
2018-08-23T03:37:15.205Z,8.00
2018-08-23T03:38:15.205Z,8.00
2018-08-23T03:39:15.205Z,8.00
2018-08-23T03:40:15.205Z,12.00
2018-08-23T03:41:15.203Z,12.00
2018-08-23T03:42:15.204Z,16.00
2018-08-23T03:43:15.203Z,16.00
2018-08-23T03:44:15.203Z,20.00
2018-08-23T03:45:15.201Z,24.00
2018-08-23T03:46:15.201Z,28.00
2018-08-23T03:47:15.203Z,32.00
2018-08-23T03:48:15.200Z,36.00
2018-08-23T03:49:15.198Z,40.00
2018-08-23T03:50:15.202Z,48.00
2018-08-23T03:51:15.199Z,52.00
2018-08-23T03:52:15.201Z,56.00
2018-08-23T03:53:15.196Z,64.00
2018-08-23T03:54:15.201Z,72.00
2018-08-23T03:55:15.200Z,76.00
2018-08-23T03:56:15.194Z,84.00
2018-08-23T03:57:15.195Z,96.00
2018-08-23T03:58:15.194Z,108.00
2018-08-23T03:59:15.195Z,120.00
2018-08-23T04:00:15.194Z,132.00
2018-08-23T04:01:15.198Z,148.00
2018-08-23T04:02:15.199Z,160.00
2018-08-23T04:03:15.192Z,172.00
2018-08-23T04:04:15.197Z,192.00
2018-08-23T04:05:15.189Z,204.00
2018-08-23T04:06:15.191Z,224.00
2018-08-23T04:07:15.189Z,244.00
2018-08-23T04:08:15.191Z,264.00
2018-08-23T04:09:15.193Z,284.00
2018-08-23T04:10:15.191Z,304.00
2018-08-23T04:11:15.187Z,328.00
2018-08-23T04:12:15.187Z,340.00
2018-08-23T04:13:15.185Z,356.00
2018-08-23T04:14:15.187Z,368.00
2018-08-23T04:15:15.222Z,392.00
2018-08-23T04:16:15.185Z,412.00
2018-08-23T04:17:15.183Z,440.00
2018-08-23T04:18:15.184Z,472.00
2018-08-23T04:19:15.180Z,512.00
2018-08-23T04:20:15.181Z,552.00
2018-08-23T04:21:15.183Z,588.00
2018-08-23T04:22:15.181Z,616.00
2018-08-23T04:23:15.180Z,644.00
2018-08-23T04:24:15.179Z,672.00
2018-08-23T04:25:15.181Z,708.00
2018-08-23T04:26:15.177Z,748.00
2018-08-23T04:27:15.183Z,780.00
2018-08-23T04:28:15.174Z,816.00
2018-08-23T04:29:15.177Z,860.00
2018-08-23T04:30:15.179Z,908.00
2018-08-23T04:31:15.178Z,964.00
2018-08-23T04:32:15.175Z,1024.00
2018-08-23T04:33:15.173Z,1076.00
2018-08-23T04:34:15.172Z,1124.00
2018-08-23T04:35:15.175Z,1168.00
2018-08-23T04:36:15.174Z,1212.00
2018-08-23T04:37:15.173Z,1256.00
2018-08-23T04:38:15.174Z,1300.00
2018-08-23T04:39:15.173Z,1344.00
2018-08-23T04:40:15.173Z,1392.00
2018-08-23T04:41:15.172Z,1444.00
2018-08-23T04:42:15.173Z,1496.00
2018-08-23T04:43:15.205Z,1548.00
2018-08-23T04:44:15.172Z,1596.00
2018-08-23T04:45:15.171Z,1640.00
2018-08-23T04:46:15.172Z,1688.00
2018-08-23T04:47:15.168Z,1732.00
2018-08-23T04:48:15.172Z,1784.00
2018-08-23T04:49:15.171Z,1836.00
2018-08-23T04:50:15.170Z,1892.00
2018-08-23T04:51:15.168Z,1948.00
2018-08-23T04:52:15.170Z,2040.00
2018-08-23T04:53:15.169Z,2108.00
2018-08-23T04:54:15.168Z,2164.00
2018-08-23T04:55:15.170Z,2240.00
2018-08-23T04:56:15.169Z,2324.00
2018-08-23T04:57:15.170Z,2416.00
2018-08-23T04:58:15.167Z,2508.00
2018-08-23T04:59:15.170Z,2612.00
2018-08-23T05:00:15.170Z,2676.00
2018-08-23T05:01:15.164Z,2780.00
2018-08-23T05:02:15.164Z,2976.00
2018-08-23T05:03:15.170Z,3128.00
2018-08-23T05:04:15.168Z,3252.00
2018-08-23T05:05:15.168Z,3352.00
2018-08-23T05:06:15.166Z,3440.00
2018-08-23T05:07:15.165Z,3536.00
2018-08-23T05:08:15.168Z,3612.00
2018-08-23T05:09:15.170Z,3684.00
2018-08-23T05:10:15.171Z,3752.00
2018-08-23T05:11:15.168Z,3816.00
2018-08-23T05:12:15.166Z,3888.00
2018-08-23T05:13:15.166Z,3976.00
2018-08-23T05:14:15.167Z,4020.00
2018-08-23T05:15:15.169Z,4068.00
2018-08-23T05:16:15.169Z,4188.00
2018-08-23T05:17:15.168Z,4232.00
2018-08-23T05:18:15.168Z,4284.00
2018-08-23T05:19:15.170Z,4300.00
2018-08-23T05:20:15.170Z,4336.00
2018-08-23T05:21:15.169Z,4436.00
2018-08-23T05:22:15.172Z,4500.00
2018-08-23T05:23:15.249Z,4536.00
2018-08-23T05:24:15.172Z,4668.00
2018-08-23T05:25:15.175Z,4764.00
2018-08-23T05:26:15.178Z,4940.00
2018-08-23T05:27:15.178Z,5152.00
2018-08-23T05:28:15.181Z,5356.00
2018-08-23T05:29:15.179Z,5540.00
2018-08-23T05:30:15.181Z,5728.00
2018-08-23T05:31:15.184Z,5856.00
2018-08-23T05:32:15.184Z,5936.00
2018-08-23T05:33:15.187Z,6136.00
2018-08-23T05:34:15.188Z,6240.00
2018-08-23T05:35:15.182Z,6380.00
2018-08-23T05:36:15.189Z,7008.00
2018-08-23T05:37:15.194Z,8540.00
2018-08-23T05:38:15.194Z,9352.00
2018-08-23T05:39:15.196Z,10016.00
2018-08-23T05:40:15.199Z,10696.00
2018-08-23T05:41:15.201Z,10656.00
2018-08-23T05:42:15.202Z,10432.00
2018-08-23T05:43:15.205Z,10628.00
2018-08-23T05:44:15.210Z,10432.00
2018-08-23T05:45:15.212Z,10196.00
2018-08-23T05:46:15.213Z,7036.00
2018-08-23T05:47:15.215Z,8180.00
2018-08-23T05:48:15.218Z,10700.00
2018-08-23T05:49:15.220Z,6404.00
2018-08-23T05:50:15.225Z,10860.00
2018-08-23T05:51:15.225Z,10228.00
2018-08-23T05:52:15.229Z,7892.00
2018-08-23T05:53:15.231Z,7300.00
2018-08-23T05:54:15.235Z,11400.00
2018-08-23T05:55:15.238Z,11788.00
2018-08-23T05:56:15.242Z,10252.00
2018-08-23T05:57:15.247Z,5360.00
2018-08-23T05:58:15.247Z,7192.00
2018-08-23T05:59:15.249Z,13440.00
2018-08-23T06:00:15.252Z,14272.00
2018-08-23T06:01:15.255Z,12568.00
2018-08-23T06:02:15.260Z,5744.00
2018-08-23T06:03:15.261Z,5456.00
2018-08-23T06:04:15.263Z,7596.00
2018-08-23T06:05:15.266Z,13044.00
2018-08-23T06:06:15.272Z,14944.00
2018-08-23T06:07:15.273Z,15136.00
2018-08-23T06:08:15.318Z,15040.00
2018-08-23T06:09:15.278Z,14688.00
2018-08-23T06:10:15.282Z,14400.00
2018-08-23T06:11:15.288Z,15872.00
2018-08-23T06:12:15.288Z,17792.00
2018-08-23T06:13:15.291Z,19392.00
2018-08-23T06:14:15.332Z,20544.00
2018-08-23T06:15:15.303Z,20832.00
2018-08-23T06:16:15.303Z,19040.00
2018-08-23T06:17:15.307Z,18688.00
2018-08-23T06:18:15.316Z,17760.00
2018-08-23T06:19:15.322Z,18464.00
2018-08-23T06:20:15.317Z,20352.00
2018-08-23T06:21:15.320Z,21248.00
2018-08-23T06:22:15.323Z,22048.00
2018-08-23T06:23:15.330Z,23008.00
2018-08-23T06:24:15.334Z,22848.00
2018-08-23T06:25:15.340Z,22752.00
2018-08-23T06:26:15.341Z,24032.00
2018-08-23T06:27:15.361Z,22880.00
2018-08-23T06:28:15.350Z,23168.00
2018-08-23T06:29:15.361Z,24352.00
2018-08-23T06:30:15.359Z,25024.00
2018-08-23T06:31:15.365Z,24640.00
2018-08-23T06:32:15.368Z,24288.00
2018-08-23T06:33:15.563Z,24800.00
2018-08-23T06:34:15.377Z,24832.00
2018-08-23T06:35:15.379Z,23360.00
2018-08-23T06:36:15.383Z,23296.00
2018-08-23T06:37:15.391Z,24096.00
2018-08-23T06:38:15.395Z,23968.00
2018-08-23T06:39:15.401Z,24064.00
2018-08-23T06:40:15.411Z,25152.00
2018-08-23T06:41:15.412Z,22688.00
2018-08-23T06:42:15.423Z,26048.00
2018-08-23T06:43:15.437Z,28896.00
2018-08-23T06:44:15.432Z,27680.00
2018-08-23T06:45:15.437Z,28128.00
2018-08-23T06:46:15.460Z,27904.00
2018-08-23T06:47:15.452Z,27648.00
2018-08-23T06:48:15.456Z,29856.00
2018-08-23T06:49:15.490Z,28352.00
2018-08-23T06:50:15.464Z,26496.00
2018-08-23T06:51:15.530Z,25856.00
2018-08-23T06:52:15.482Z,24704.00
2018-08-23T06:53:15.505Z,25984.00
2018-08-23T06:54:15.493Z,27744.00
2018-08-23T06:55:15.502Z,32064.00
2018-08-23T06:56:15.505Z,32224.00
2018-08-23T06:57:15.512Z,32480.00
2018-08-23T06:58:15.517Z,32480.00
2018-08-23T06:59:15.524Z,30624.00
2018-08-23T07:00:15.533Z,31776.00
2018-08-23T07:01:15.540Z,34176.00
2018-08-23T07:02:15.543Z,30112.00
2018-08-23T07:03:15.549Z,29280.00
2018-08-23T07:04:15.556Z,32544.00
2018-08-23T07:05:15.566Z,30432.00
2018-08-23T07:06:15.569Z,33088.00
2018-08-23T07:07:15.579Z,34688.00
2018-08-23T07:08:15.595Z,30880.00
2018-08-23T07:09:15.588Z,35040.00
2018-08-23T07:10:15.599Z,37216.00
2018-08-23T07:11:15.605Z,34400.00
2018-08-23T07:12:15.615Z,34368.00
2018-08-23T07:13:15.619Z,27680.00
2018-08-23T07:14:15.629Z,27392.00
2018-08-23T07:15:15.638Z,31936.00
2018-08-23T07:16:15.641Z,34176.00
2018-08-23T07:17:15.724Z,37408.00
2018-08-23T07:18:15.654Z,36928.00
2018-08-23T07:19:16.904Z,34944.00
2018-08-23T07:20:16.110Z,26880.00
2018-08-23T07:22:16.316Z,26016.00
2018-08-23T07:23:15.697Z,25824.00
2018-08-23T07:24:15.775Z,29216.00
2018-08-23T07:25:15.711Z,31968.00
2018-08-23T07:27:15.725Z,31744.00
2018-08-23T07:28:16.105Z,29312.00
2018-08-23T07:29:15.807Z,30048.00
2018-08-23T07:30:15.789Z,28416.00
2018-08-23T07:31:15.853Z,30208.00
2018-08-23T07:32:15.956Z,34144.00
2018-08-23T07:33:15.817Z,31296.00
2018-08-23T07:34:15.784Z,29056.00
2018-08-23T07:35:15.967Z,28832.00
2018-08-23T07:36:16.138Z,26272.00
2018-08-23T07:37:15.812Z,26912.00
2018-08-23T07:38:16.025Z,28512.00
2018-08-23T07:39:15.844Z,28896.00
2018-08-23T07:40:15.836Z,30144.00
2018-08-23T07:42:15.855Z,30592.00
2018-08-23T07:43:15.863Z,27680.00
2018-08-23T07:44:15.874Z,24256.00
2018-08-23T07:45:15.882Z,22880.00
2018-08-23T07:46:15.889Z,23840.00
2018-08-23T07:47:15.902Z,23872.00
2018-08-23T07:48:15.910Z,23520.00
2018-08-23T07:49:17.023Z,18240.00
2018-08-23T07:50:15.929Z,13616.00
2018-08-23T07:51:17.040Z,12080.00
2018-08-23T07:52:15.949Z,10180.00
2018-08-23T07:53:15.991Z,9652.00
2018-08-23T07:54:16.911Z,9920.00
2018-08-23T07:55:15.974Z,9828.00
2018-08-23T07:56:15.982Z,9604.00
2018-08-23T07:57:15.991Z,9364.00
2018-08-23T07:58:16.002Z,8964.00
2018-08-23T07:59:16.013Z,8912.00
2018-08-23T08:00:16.014Z,9100.00
2018-08-23T08:01:16.029Z,9580.00
2018-08-23T08:02:16.036Z,9276.00
2018-08-23T08:03:16.041Z,8992.00
2018-08-23T08:04:16.052Z,9036.00
2018-08-23T08:05:16.059Z,9256.00
2018-08-23T08:06:16.063Z,9224.00
2018-08-23T08:07:16.070Z,9336.00
2018-08-23T08:08:16.081Z,9168.00
2018-08-23T08:10:16.097Z,8760.00
2018-08-23T08:11:16.104Z,8724.00
2018-08-23T08:12:16.149Z,8972.00
2018-08-23T08:13:16.115Z,9152.00
2018-08-23T08:14:16.124Z,9172.00
2018-08-23T08:15:16.242Z,9704.00
2018-08-23T08:16:16.141Z,10800.00
2018-08-23T08:17:16.144Z,10600.00
2018-08-23T08:18:16.161Z,9948.00
2018-08-23T08:19:16.158Z,9752.00
2018-08-23T08:20:16.167Z,9192.00
2018-08-23T08:21:16.172Z,9040.00
2018-08-23T08:22:16.177Z,9048.00
2018-08-23T08:23:16.191Z,9232.00
2018-08-23T08:24:16.192Z,9044.00
2018-08-23T08:25:16.201Z,9064.00
2018-08-23T08:26:16.204Z,9356.00
2018-08-23T08:27:16.224Z,14212.00
2018-08-23T08:28:16.224Z,23968.00
2018-08-23T08:29:16.229Z,31200.00
2018-08-23T08:30:16.230Z,25056.00
2018-08-23T08:31:16.244Z,14456.00
2018-08-23T08:32:16.248Z,8280.00
2018-08-23T08:33:16.368Z,7864.00
2018-08-23T08:34:16.262Z,7760.00
2018-08-23T08:35:16.265Z,7704.00
2018-08-23T08:36:16.274Z,7608.00
2018-08-23T08:37:16.280Z,7464.00
2018-08-23T08:38:16.286Z,7368.00
2018-08-23T08:39:16.291Z,7288.00
2018-08-23T08:40:16.297Z,7228.00
2018-08-23T08:41:16.303Z,7168.00
2018-08-23T08:42:16.310Z,7112.00
2018-08-23T08:43:16.315Z,6996.00
2018-08-23T08:44:16.322Z,6924.00
2018-08-23T08:45:16.330Z,6868.00
2018-08-23T08:46:16.334Z,6836.00
2018-08-23T08:47:16.341Z,6728.00
2018-08-23T08:48:16.347Z,6668.00
2018-08-23T08:49:16.354Z,6632.00
2018-08-23T08:50:16.373Z,6688.00
2018-08-23T08:51:16.365Z,6740.00
2018-08-23T08:52:16.372Z,6788.00
2018-08-23T08:53:16.378Z,6844.00
2018-08-23T08:54:16.386Z,6872.00
2018-08-23T08:55:16.392Z,6884.00
2018-08-23T08:56:16.399Z,6836.00
2018-08-23T08:57:16.435Z,6768.00
2018-08-23T08:58:16.410Z,6664.00
2018-08-23T08:59:16.417Z,6524.00
2018-08-23T09:00:16.421Z,6416.00
2018-08-23T09:01:16.427Z,6336.00
2018-08-23T09:02:16.435Z,6260.00
2018-08-23T09:03:16.520Z,6188.00
2018-08-23T09:04:16.447Z,6112.00
2018-08-23T09:05:16.455Z,6100.00
2018-08-23T09:06:16.457Z,6088.00
2018-08-23T09:07:16.470Z,6064.00
2018-08-23T09:08:16.472Z,6036.00
2018-08-23T09:09:16.478Z,5992.00
2018-08-23T09:10:16.484Z,5952.00
2018-08-23T09:11:16.492Z,5936.00
2018-08-23T09:12:16.492Z,5924.00
2018-08-23T09:13:16.521Z,5912.00
2018-08-23T09:14:16.503Z,5892.00
2018-08-23T09:15:16.510Z,5872.00
2018-08-23T09:16:16.516Z,5840.00
2018-08-23T09:17:16.523Z,5840.00
2018-08-23T09:18:16.528Z,5800.00
2018-08-23T09:19:16.538Z,5768.00
2018-08-23T09:20:16.541Z,5724.00
2018-08-23T09:21:16.547Z,5684.00
2018-08-23T09:22:16.552Z,5648.00
2018-08-23T09:23:16.564Z,5616.00
2018-08-23T09:24:16.565Z,5592.00
2018-08-23T09:25:16.632Z,5600.00
2018-08-23T09:26:16.580Z,5596.00
2018-08-23T09:27:16.649Z,5580.00
2018-08-23T09:28:16.592Z,5588.00
2018-08-23T09:29:16.591Z,5548.00
2018-08-23T09:30:16.597Z,5524.00
2018-08-23T09:31:16.605Z,5488.00
2018-08-23T09:32:16.612Z,5464.00
2018-08-23T09:33:16.616Z,5440.00
2018-08-23T09:34:16.624Z,5444.00
2018-08-23T09:35:16.630Z,5448.00
2018-08-23T09:36:16.635Z,5468.00
2018-08-23T09:37:16.640Z,5444.00
2018-08-23T09:38:16.645Z,5416.00
2018-08-23T09:39:16.651Z,5380.00
2018-08-23T09:40:16.658Z,5360.00
2018-08-23T09:41:16.664Z,5312.00
2018-08-23T09:42:16.669Z,5300.00
2018-08-23T09:43:16.678Z,5300.00
2018-08-23T09:44:16.681Z,5320.00
2018-08-23T09:45:16.687Z,5288.00
2018-08-23T09:46:16.694Z,5272.00
2018-08-23T09:47:16.699Z,5272.00
2018-08-23T09:48:16.705Z,5276.00
2018-08-23T09:49:16.713Z,5260.00
2018-08-23T09:50:16.782Z,5224.00
2018-08-23T09:51:16.783Z,5172.00
2018-08-23T09:52:16.743Z,5140.00
2018-08-23T09:53:16.739Z,5124.00
2018-08-23T09:54:16.747Z,5160.00
2018-08-23T09:55:16.747Z,5252.00
2018-08-23T09:56:16.753Z,5476.00
2018-08-23T09:57:16.760Z,5864.00
2018-08-23T09:58:16.764Z,6156.00
2018-08-23T09:59:16.769Z,6320.00
2018-08-23T10:00:16.777Z,6172.00
2018-08-23T10:01:16.782Z,5904.00
2018-08-23T10:02:16.790Z,5616.00
2018-08-23T10:03:16.794Z,5384.00
2018-08-23T10:04:16.821Z,5196.00
2018-08-23T10:05:16.805Z,5084.00
2018-08-23T10:06:16.814Z,4984.00
2018-08-23T10:07:16.818Z,4896.00
2018-08-23T10:08:16.824Z,4816.00
2018-08-23T10:09:16.828Z,4748.00
2018-08-23T10:10:16.840Z,4712.00
2018-08-23T10:11:16.861Z,4660.00
2018-08-23T10:12:16.851Z,4644.00
2018-08-23T10:13:16.856Z,4640.00
2018-08-23T10:14:16.860Z,4644.00
2018-08-23T10:15:16.868Z,4632.00
2018-08-23T10:16:16.870Z,4592.00
2018-08-23T10:17:16.878Z,4564.00
2018-08-23T10:18:16.885Z,4548.00
2018-08-23T10:19:16.893Z,4540.00
2018-08-23T10:20:16.897Z,4540.00
2018-08-23T10:21:16.990Z,4548.00
2018-08-23T10:22:16.908Z,4532.00
2018-08-23T10:23:16.913Z,4548.00
2018-08-23T10:24:16.922Z,4528.00
2018-08-23T10:25:16.925Z,4492.00
2018-08-23T10:26:16.937Z,4472.00
2018-08-23T10:27:16.938Z,4420.00
2018-08-23T10:28:16.945Z,4360.00
2018-08-23T10:29:16.990Z,4292.00
2018-08-23T10:30:16.957Z,4228.00
2018-08-23T10:31:16.990Z,4208.00
2018-08-23T10:32:17.129Z,4168.00
2018-08-23T10:33:16.977Z,4144.00
2018-08-23T10:34:16.983Z,4128.00
2018-08-23T10:35:16.990Z,4136.00
2018-08-23T10:36:16.997Z,4120.00
2018-08-23T10:37:17.003Z,4132.00
2018-08-23T10:38:17.063Z,4124.00
2018-08-23T10:39:17.017Z,4112.00
2018-08-23T10:40:17.019Z,4116.00
2018-08-23T10:41:17.025Z,4140.00
2018-08-23T10:42:17.031Z,4144.00
2018-08-23T10:43:17.040Z,4176.00
2018-08-23T10:44:17.111Z,4180.00
2018-08-23T10:45:17.052Z,4240.00
2018-08-23T10:46:17.058Z,4268.00
2018-08-23T10:47:17.092Z,4316.00
2018-08-23T10:48:17.072Z,4264.00
2018-08-23T10:49:17.076Z,4180.00
2018-08-23T10:50:17.085Z,4096.00
2018-08-23T10:51:17.091Z,4040.00
2018-08-23T10:52:17.101Z,3944.00
2018-08-23T10:53:17.103Z,3932.00
2018-08-23T10:54:17.113Z,3920.00
2018-08-23T10:55:17.116Z,3912.00
2018-08-23T10:56:17.125Z,3876.00
2018-08-23T10:57:17.132Z,3856.00
2018-08-23T10:58:17.140Z,3812.00
2018-08-23T10:59:17.260Z,3776.00
2018-08-23T11:00:17.151Z,3736.00
2018-08-23T11:01:17.156Z,3736.00
2018-08-23T11:02:17.163Z,3728.00
2018-08-23T11:03:17.247Z,3716.00
2018-08-23T11:04:17.176Z,3708.00
2018-08-23T11:05:17.183Z,3700.00
2018-08-23T11:06:17.191Z,3696.00
2018-08-23T11:07:17.195Z,3676.00
2018-08-23T11:08:17.205Z,3660.00
2018-08-23T11:09:17.209Z,3644.00
2018-08-23T11:10:17.216Z,3580.00
2018-08-23T11:11:17.225Z,3560.00
2018-08-23T11:12:17.233Z,3568.00
2018-08-23T11:13:17.236Z,3536.00
2018-08-23T11:14:17.243Z,3524.00
2018-08-23T11:15:17.249Z,3500.00
2018-08-23T11:16:17.257Z,3464.00
2018-08-23T11:17:17.301Z,3440.00
2018-08-23T11:18:17.272Z,3420.00
2018-08-23T11:19:17.276Z,3408.00
2018-08-23T11:20:17.283Z,3420.00
2018-08-23T11:21:17.289Z,3412.00
2018-08-23T11:22:17.294Z,3400.00
2018-08-23T11:23:17.304Z,3392.00
2018-08-23T11:24:17.310Z,3384.00
2018-08-23T11:25:17.315Z,3364.00
2018-08-23T11:26:17.322Z,3332.00
2018-08-23T11:27:17.332Z,3320.00
2018-08-23T11:28:17.338Z,3316.00
2018-08-23T11:29:17.353Z,3308.00
2018-08-23T11:30:17.355Z,3300.00
2018-08-23T11:31:17.358Z,3296.00
2018-08-23T11:32:17.363Z,3312.00
2018-08-23T11:33:17.374Z,3308.00
2018-08-23T11:34:17.376Z,3308.00
2018-08-23T11:35:17.434Z,3304.00
2018-08-23T11:36:17.390Z,3308.00
2018-08-23T11:37:17.396Z,3308.00
2018-08-23T11:38:17.406Z,3332.00
2018-08-23T11:39:17.409Z,3324.00
2018-08-23T11:40:17.418Z,3340.00
2018-08-23T11:41:17.421Z,3356.00
2018-08-23T11:42:17.430Z,3352.00
2018-08-23T11:43:17.436Z,3356.00
2018-08-23T11:44:17.444Z,3340.00
2018-08-23T11:45:17.454Z,3360.00
2018-08-23T11:46:17.455Z,3368.00
2018-08-23T11:47:17.462Z,3372.00
2018-08-23T11:48:17.471Z,3384.00
2018-08-23T11:49:17.477Z,3400.00
2018-08-23T11:50:17.485Z,3404.00
2018-08-23T11:51:17.494Z,3412.00
2018-08-23T11:52:18.297Z,3396.00
2018-08-23T11:53:17.564Z,3400.00
2018-08-23T11:54:17.649Z,3420.00
2018-08-23T11:55:17.886Z,3424.00
2018-08-23T11:56:17.548Z,3416.00
2018-08-23T11:57:17.533Z,3400.00
2018-08-23T11:58:17.566Z,3404.00
2018-08-23T11:59:17.699Z,3428.00
2018-08-23T12:00:17.612Z,3452.00
2018-08-23T12:01:17.674Z,3472.00
2018-08-23T12:02:17.791Z,3496.00
2018-08-23T12:03:17.635Z,3532.00
2018-08-23T12:04:17.781Z,3524.00
2018-08-23T12:05:17.834Z,3532.00
2018-08-23T12:06:17.652Z,3516.00
2018-08-23T12:07:17.603Z,3508.00
2018-08-23T12:08:17.611Z,3504.00
2018-08-23T12:09:17.630Z,3524.00
2018-08-23T12:10:19.172Z,3512.00
2018-08-23T12:11:18.000Z,3300.00
2018-08-23T12:12:17.827Z,3376.00
2018-08-23T12:13:17.859Z,3480.00
2018-08-23T12:14:17.690Z,3556.00
2018-08-23T12:15:17.662Z,3684.00
2018-08-23T12:16:17.697Z,3996.00
2018-08-23T12:17:17.674Z,4180.00
2018-08-23T12:18:17.682Z,4404.00
2018-08-23T12:19:17.690Z,4752.00
2018-08-23T12:20:17.697Z,4556.00
2018-08-23T12:21:17.934Z,4412.00
2018-08-23T12:22:17.786Z,4496.00
2018-08-23T12:23:17.721Z,4260.00
2018-08-23T12:24:17.726Z,4140.00
2018-08-23T12:25:17.734Z,3976.00
2018-08-23T12:26:17.814Z,3976.00
2018-08-23T12:27:17.746Z,3740.00
2018-08-23T12:28:17.756Z,3584.00